sensor_id;sensor_type;location;lat;lon;timestamp;pressure;altitude;pressure_sealevel;temperature;humidity
11971;BME280;6045;42.682;23.294;2023-04-08T00:01:45;94719.03;;;7.77;63.24
11971;BME280;6045;42.682;23.294;2023-04-08T00:04:11;94710.63;;;7.80;63.23
11971;BME280;6045;42.682;23.294;2023-04-08T00:06:38;94719.66;;;7.79;63.12
11971;BME280;6045;42.682;23.294;2023-04-08T00:09:05;94716.97;;;7.79;63.04
11971;BME280;6045;42.682;23.294;2023-04-08T00:11:33;94724.13;;;7.79;63.33
11971;BME280;6045;42.682;23.294;2023-04-08T00:14:02;94717.78;;;7.80;63.49
11971;BME280;6045;42.682;23.294;2023-04-08T00:16:29;94722.50;;;7.78;63.36
11971;BME280;6045;42.682;23.294;2023-04-08T00:18:56;94718.00;;;7.78;63.32
11971;BME280;6045;42.682;23.294;2023-04-08T00:21:23;94709.41;;;7.76;63.13
11971;BME280;6045;42.682;23.294;2023-04-08T00:23:51;94715.16;;;7.73;63.47
11971;BME280;6045;42.682;23.294;2023-04-08T00:26:18;94705.53;;;7.72;63.60
11971;BME280;6045;42.682;23.294;2023-04-08T00:28:46;94706.56;;;7.71;63.68
11971;BME280;6045;42.682;23.294;2023-04-08T00:31:13;94711.66;;;7.73;63.93
11971;BME280;6045;42.682;23.294;2023-04-08T00:33:40;94713.31;;;7.74;63.63
11971;BME280;6045;42.682;23.294;2023-04-08T00:36:06;94706.78;;;7.70;64.05
11971;BME280;6045;42.682;23.294;2023-04-08T00:38:33;94706.97;;;7.68;63.87
11971;BME280;6045;42.682;23.294;2023-04-08T00:41:00;94714.34;;;7.66;64.07
11971;BME280;6045;42.682;23.294;2023-04-08T00:43:27;94713.94;;;7.69;64.24
11971;BME280;6045;42.682;23.294;2023-04-08T00:45:55;94715.38;;;7.72;64.37
11971;BME280;6045;42.682;23.294;2023-04-08T00:48:22;94715.78;;;7.69;63.80
11971;BME280;6045;42.682;23.294;2023-04-08T00:50:48;94720.50;;;7.67;63.52
11971;BME280;6045;42.682;23.294;2023-04-08T00:53:17;94717.19;;;7.71;63.86
11971;BME280;6045;42.682;23.294;2023-04-08T00:55:44;94721.28;;;7.74;64.01
11971;BME280;6045;42.682;23.294;2023-04-08T00:58:11;94713.91;;;7.76;63.70
11971;BME280;6045;42.682;23.294;2023-04-08T01:00:43;94721.28;;;7.74;63.80
11971;BME280;6045;42.682;23.294;2023-04-08T01:03:16;94720.06;;;7.76;63.92
11971;BME280;6045;42.682;23.294;2023-04-08T01:05:51;94722.50;;;7.78;64.26
11971;BME280;6045;42.682;23.294;2023-04-08T01:08:23;94726.81;;;7.79;64.04
11971;BME280;6045;42.682;23.294;2023-04-08T01:10:53;94719.84;;;7.78;63.76
11971;BME280;6045;42.682;23.294;2023-04-08T01:13:22;94721.31;;;7.67;63.75
11971;BME280;6045;42.682;23.294;2023-04-08T01:15:52;94726.03;;;7.65;64.54
11971;BME280;6045;42.682;23.294;2023-04-08T01:18:21;94729.47;;;7.66;63.97
11971;BME280;6045;42.682;23.294;2023-04-08T01:20:50;94731.75;;;7.62;64.52
11971;BME280;6045;42.682;23.294;2023-04-08T01:23:24;94726.06;;;7.52;64.71
11971;BME280;6045;42.682;23.294;2023-04-08T01:25:56;94726.47;;;7.49;64.27
11971;BME280;6045;42.682;23.294;2023-04-08T01:28:27;94727.72;;;7.40;64.56
11971;BME280;6045;42.682;23.294;2023-04-08T01:30:57;94729.34;;;7.41;64.11
11971;BME280;6045;42.682;23.294;2023-04-08T01:33:26;94732.41;;;7.44;64.19
11971;BME280;6045;42.682;23.294;2023-04-08T01:35:54;94733.41;;;7.50;63.62
11971;BME280;6045;42.682;23.294;2023-04-08T01:38:23;94724.63;;;7.49;63.75
11971;BME280;6045;42.682;23.294;2023-04-08T01:40:52;94732.84;;;7.41;64.36
11971;BME280;6045;42.682;23.294;2023-04-08T01:43:23;94731.22;;;7.08;64.84
11971;BME280;6045;42.682;23.294;2023-04-08T01:45:50;94722.25;;;6.89;65.33
11971;BME280;6045;42.682;23.294;2023-04-08T01:48:23;94731.44;;;6.80;65.82
11971;BME280;6045;42.682;23.294;2023-04-08T01:50:50;94726.94;;;6.67;65.94
11971;BME280;6045;42.682;23.294;2023-04-08T01:53:17;94727.72;;;6.55;65.51
11971;BME280;6045;42.682;23.294;2023-04-08T01:55:44;94728.56;;;6.49;66.20
11971;BME280;6045;42.682;23.294;2023-04-08T01:58:17;94732.84;;;6.50;65.78
11971;BME280;6045;42.682;23.294;2023-04-08T02:00:47;94733.25;;;6.53;66.09
11971;BME280;6045;42.682;23.294;2023-04-08T02:03:17;94740.00;;;6.69;66.23
11971;BME280;6045;42.682;23.294;2023-04-08T02:05:45;94743.06;;;6.85;65.65
11971;BME280;6045;42.682;23.294;2023-04-08T02:08:12;94747.19;;;6.95;66.19
11971;BME280;6045;42.682;23.294;2023-04-08T02:10:39;94747.41;;;7.06;66.69
11971;BME280;6045;42.682;23.294;2023-04-08T02:13:06;94748.00;;;7.15;65.74
11971;BME280;6045;42.682;23.294;2023-04-08T02:15:35;94745.75;;;7.25;65.71
11971;BME280;6045;42.682;23.294;2023-04-08T02:18:10;94754.09;;;7.35;65.05
11971;BME280;6045;42.682;23.294;2023-04-08T02:20:42;94754.91;;;7.42;64.84
11971;BME280;6045;42.682;23.294;2023-04-08T02:23:13;94749.41;;;7.43;65.23
11971;BME280;6045;42.682;23.294;2023-04-08T02:25:43;94755.34;;;7.39;65.68
11971;BME280;6045;42.682;23.294;2023-04-08T02:28:11;94758.41;;;7.29;66.81
11971;BME280;6045;42.682;23.294;2023-04-08T02:30:42;94762.91;;;7.29;66.74
11971;BME280;6045;42.682;23.294;2023-04-08T02:33:11;94756.78;;;7.22;67.30
11971;BME280;6045;42.682;23.294;2023-04-08T02:35:40;94749.22;;;7.06;67.68
11971;BME280;6045;42.682;23.294;2023-04-08T02:38:08;94747.41;;;7.06;67.67
11971;BME280;6045;42.682;23.294;2023-04-08T02:40:35;94749.22;;;7.19;67.77
11971;BME280;6045;42.682;23.294;2023-04-08T02:43:02;94752.69;;;7.13;68.08
11971;BME280;6045;42.682;23.294;2023-04-08T02:45:31;94754.97;;;7.16;67.80
11971;BME280;6045;42.682;23.294;2023-04-08T02:47:59;94748.00;;;7.02;68.67
11971;BME280;6045;42.682;23.294;2023-04-08T02:50:27;94750.25;;;7.11;67.73
11971;BME280;6045;42.682;23.294;2023-04-08T02:52:54;94750.84;;;7.20;67.24
11971;BME280;6045;42.682;23.294;2023-04-08T02:55:21;94748.22;;;7.13;67.24
11971;BME280;6045;42.682;23.294;2023-04-08T02:57:48;94754.13;;;7.15;67.39
11971;BME280;6045;42.682;23.294;2023-04-08T03:00:15;94754.75;;;7.11;67.84
11971;BME280;6045;42.682;23.294;2023-04-08T03:02:42;94753.31;;;7.15;67.69
11971;BME280;6045;42.682;23.294;2023-04-08T03:05:09;94755.34;;;7.13;67.60
11971;BME280;6045;42.682;23.294;2023-04-08T03:07:37;94755.34;;;7.19;67.72
11971;BME280;6045;42.682;23.294;2023-04-08T03:10:06;94754.13;;;7.22;67.78
11971;BME280;6045;42.682;23.294;2023-04-08T03:12:32;94749.63;;;7.22;67.43
11971;BME280;6045;42.682;23.294;2023-04-08T03:14:59;94748.81;;;7.02;68.13
11971;BME280;6045;42.682;23.294;2023-04-08T03:17:27;94749.44;;;7.11;68.27
11971;BME280;6045;42.682;23.294;2023-04-08T03:19:56;94749.00;;;7.14;68.88
11971;BME280;6045;42.682;23.294;2023-04-08T03:22:23;94747.16;;;7.21;68.42
11971;BME280;6045;42.682;23.294;2023-04-08T03:24:51;94748.41;;;7.25;67.81
11971;BME280;6045;42.682;23.294;2023-04-08T03:27:18;94757.38;;;7.30;67.61
11971;BME280;6045;42.682;23.294;2023-04-08T03:29:45;94758.81;;;7.33;67.60
11971;BME280;6045;42.682;23.294;2023-04-08T03:32:12;94751.66;;;7.33;67.36
11971;BME280;6045;42.682;23.294;2023-04-08T03:34:38;94760.44;;;7.34;67.22
11971;BME280;6045;42.682;23.294;2023-04-08T03:37:06;94761.06;;;7.36;67.29
11971;BME280;6045;42.682;23.294;2023-04-08T03:39:33;94761.91;;;7.30;66.95
11971;BME280;6045;42.682;23.294;2023-04-08T03:42:01;94765.16;;;7.19;67.34
11971;BME280;6045;42.682;23.294;2023-04-08T03:44:28;94760.66;;;7.19;67.25
11971;BME280;6045;42.682;23.294;2023-04-08T03:46:55;94758.44;;;7.23;68.10
11971;BME280;6045;42.682;23.294;2023-04-08T03:49:22;94759.25;;;7.30;67.60
11971;BME280;6045;42.682;23.294;2023-04-08T03:51:49;94759.84;;;7.32;67.37
11971;BME280;6045;42.682;23.294;2023-04-08T03:54:15;94759.84;;;7.32;67.49
11971;BME280;6045;42.682;23.294;2023-04-08T03:56:42;94753.31;;;7.34;67.45
11971;BME280;6045;42.682;23.294;2023-04-08T03:59:10;94747.97;;;7.34;67.61
11971;BME280;6045;42.682;23.294;2023-04-08T04:01:37;94752.25;;;7.35;68.08
11971;BME280;6045;42.682;23.294;2023-04-08T04:04:04;94757.38;;;7.30;67.74
11971;BME280;6045;42.682;23.294;2023-04-08T04:06:31;94752.28;;;7.29;68.02
11971;BME280;6045;42.682;23.294;2023-04-08T04:08:57;94753.69;;;7.31;68.58
11971;BME280;6045;42.682;23.294;2023-04-08T04:11:24;94755.34;;;7.26;68.80
11971;BME280;6045;42.682;23.294;2023-04-08T04:13:51;94759.03;;;7.18;68.11
11971;BME280;6045;42.682;23.294;2023-04-08T04:16:19;94759.84;;;7.25;68.25
11971;BME280;6045;42.682;23.294;2023-04-08T04:18:46;94762.50;;;7.32;68.48
11971;BME280;6045;42.682;23.294;2023-04-08T04:21:13;94763.72;;;7.36;68.02
11971;BME280;6045;42.682;23.294;2023-04-08T04:23:39;94765.53;;;7.42;67.73
11971;BME280;6045;42.682;23.294;2023-04-08T04:26:07;94771.50;;;7.44;67.65
11971;BME280;6045;42.682;23.294;2023-04-08T04:28:35;94769.22;;;7.47;67.84
11971;BME280;6045;42.682;23.294;2023-04-08T04:31:02;94771.06;;;7.47;68.76
11971;BME280;6045;42.682;23.294;2023-04-08T04:33:30;94772.31;;;7.51;69.15
11971;BME280;6045;42.682;23.294;2023-04-08T04:35:57;94778.63;;;7.50;68.29
11971;BME280;6045;42.682;23.294;2023-04-08T04:38:24;94777.41;;;7.46;68.13
11971;BME280;6045;42.682;23.294;2023-04-08T04:40:51;94774.31;;;7.49;67.72
11971;BME280;6045;42.682;23.294;2023-04-08T04:43:18;94766.56;;;7.47;67.83
11971;BME280;6045;42.682;23.294;2023-04-08T04:45:44;94773.94;;;7.45;67.65
11971;BME280;6045;42.682;23.294;2023-04-08T04:48:11;94777.00;;;7.42;67.32
11971;BME280;6045;42.682;23.294;2023-04-08T04:50:39;94768.19;;;7.42;67.71
11971;BME280;6045;42.682;23.294;2023-04-08T04:53:06;94762.00;;;8.38;84.54
11971;BME280;6045;42.682;23.294;2023-04-08T04:55:33;94768.63;;;8.91;76.93
11971;BME280;6045;42.682;23.294;2023-04-08T04:58:00;94768.75;;;8.72;68.18
11971;BME280;6045;42.682;23.294;2023-04-08T05:00:26;94777.53;;;8.48;65.13
11971;BME280;6045;42.682;23.294;2023-04-08T05:02:53;94778.63;;;8.20;64.99
11971;BME280;6045;42.682;23.294;2023-04-08T05:05:20;94783.81;;;8.02;64.89
11971;BME280;6045;42.682;23.294;2023-04-08T05:07:48;94785.09;;;7.93;65.51
11971;BME280;6045;42.682;23.294;2023-04-08T05:10:15;94780.59;;;7.87;66.01
11971;BME280;6045;42.682;23.294;2023-04-08T05:12:41;94783.47;;;7.86;66.03
11971;BME280;6045;42.682;23.294;2023-04-08T05:15:09;94783.47;;;7.86;66.00
11971;BME280;6045;42.682;23.294;2023-04-08T05:17:36;94778.78;;;7.81;66.44
11971;BME280;6045;42.682;23.294;2023-04-08T05:20:03;94784.09;;;7.81;71.36
11971;BME280;6045;42.682;23.294;2023-04-08T05:22:30;94779.97;;;7.85;70.20
11971;BME280;6045;42.682;23.294;2023-04-08T05:24:58;94782.66;;;7.85;68.29
11971;BME280;6045;42.682;23.294;2023-04-08T05:27:24;94779.34;;;7.90;67.58
11971;BME280;6045;42.682;23.294;2023-04-08T05:29:51;94776.25;;;7.99;66.46
11971;BME280;6045;42.682;23.294;2023-04-08T05:32:18;94781.38;;;7.94;66.12
11971;BME280;6045;42.682;23.294;2023-04-08T05:34:45;94781.34;;;8.07;66.00
11971;BME280;6045;42.682;23.294;2023-04-08T05:37:12;94776.00;;;8.14;65.90
11971;BME280;6045;42.682;23.294;2023-04-08T05:39:38;94774.75;;;8.16;66.11
11971;BME280;6045;42.682;23.294;2023-04-08T05:42:08;94782.94;;;8.15;65.88
11971;BME280;6045;42.682;23.294;2023-04-08T05:44:35;94788.50;;;8.13;66.23
11971;BME280;6045;42.682;23.294;2023-04-08T05:47:03;94780.50;;;8.27;65.26
11971;BME280;6045;42.682;23.294;2023-04-08T05:49:29;94773.09;;;8.22;65.43
11971;BME280;6045;42.682;23.294;2023-04-08T05:51:56;94774.94;;;8.28;65.41
11971;BME280;6045;42.682;23.294;2023-04-08T05:54:23;94784.09;;;8.39;65.33
11971;BME280;6045;42.682;23.294;2023-04-08T05:56:50;94775.97;;;8.34;65.04
11971;BME280;6045;42.682;23.294;2023-04-08T05:59:18;94772.25;;;8.35;65.61
11971;BME280;6045;42.682;23.294;2023-04-08T06:01:44;94772.53;;;8.13;65.11
11971;BME280;6045;42.682;23.294;2023-04-08T06:04:11;94774.94;;;8.28;64.65
11971;BME280;6045;42.682;23.294;2023-04-08T06:06:38;94776.56;;;8.36;64.95
11971;BME280;6045;42.682;23.294;2023-04-08T06:09:05;94774.97;;;8.66;67.87
11971;BME280;6045;42.682;23.294;2023-04-08T06:11:32;94770.41;;;8.73;64.89
11971;BME280;6045;42.682;23.294;2023-04-08T06:13:58;94760.47;;;8.86;63.48
11971;BME280;6045;42.682;23.294;2023-04-08T06:16:27;94771.91;;;8.93;63.24
11971;BME280;6045;42.682;23.294;2023-04-08T06:18:53;94768.50;;;8.80;63.91
11971;BME280;6045;42.682;23.294;2023-04-08T06:21:20;94775.22;;;8.89;63.10
11971;BME280;6045;42.682;23.294;2023-04-08T06:23:47;94767.16;;;8.95;61.77
11971;BME280;6045;42.682;23.294;2023-04-08T06:26:14;94772.97;;;8.86;63.33
11971;BME280;6045;42.682;23.294;2023-04-08T06:28:41;94769.78;;;9.02;64.15
11971;BME280;6045;42.682;23.294;2023-04-08T06:31:08;94765.41;;;9.39;63.29
11971;BME280;6045;42.682;23.294;2023-04-08T06:33:36;94769.28;;;9.61;62.39
11971;BME280;6045;42.682;23.294;2023-04-08T06:36:03;94776.00;;;9.88;64.77
11971;BME280;6045;42.682;23.294;2023-04-08T06:38:31;94774.59;;;10.04;62.32
11971;BME280;6045;42.682;23.294;2023-04-08T06:41:01;94770.38;;;10.32;66.51
11971;BME280;6045;42.682;23.294;2023-04-08T06:43:28;94777.56;;;10.32;57.22
11971;BME280;6045;42.682;23.294;2023-04-08T06:45:55;94769.13;;;10.17;55.94
11971;BME280;6045;42.682;23.294;2023-04-08T06:48:22;94774.91;;;10.14;56.33
11971;BME280;6045;42.682;23.294;2023-04-08T06:50:54;94776.16;;;10.48;77.32
11971;BME280;6045;42.682;23.294;2023-04-08T06:53:21;94776.81;;;11.55;77.99
11971;BME280;6045;42.682;23.294;2023-04-08T06:55:48;94768.22;;;12.51;74.13
11971;BME280;6045;42.682;23.294;2023-04-08T06:58:15;94764.47;;;13.37;70.14
11971;BME280;6045;42.682;23.294;2023-04-08T07:00:42;94767.78;;;13.94;66.01
11971;BME280;6045;42.682;23.294;2023-04-08T07:03:09;94769.94;;;14.52;63.43
11971;BME280;6045;42.682;23.294;2023-04-08T07:05:36;94766.66;;;14.93;58.76
11971;BME280;6045;42.682;23.294;2023-04-08T07:08:05;94764.13;;;14.81;57.34
11971;BME280;6045;42.682;23.294;2023-04-08T07:10:32;94768.19;;;15.11;58.51
11971;BME280;6045;42.682;23.294;2023-04-08T07:12:58;94766.75;;;15.30;52.95
11971;BME280;6045;42.682;23.294;2023-04-08T07:15:25;94769.09;;;15.48;51.73
11971;BME280;6045;42.682;23.294;2023-04-08T07:17:52;94770.66;;;15.44;51.52
11971;BME280;6045;42.682;23.294;2023-04-08T07:20:21;94780.69;;;15.22;51.63
11971;BME280;6045;42.682;23.294;2023-04-08T07:22:47;94787.59;;;14.86;44.88
11971;BME280;6045;42.682;23.294;2023-04-08T07:25:16;94779.69;;;14.36;45.09
11971;BME280;6045;42.682;23.294;2023-04-08T07:27:43;94786.13;;;13.63;46.46
11971;BME280;6045;42.682;23.294;2023-04-08T07:30:10;94786.19;;;12.79;49.70
11971;BME280;6045;42.682;23.294;2023-04-08T07:32:37;94781.16;;;12.82;64.55
11971;BME280;6045;42.682;23.294;2023-04-08T07:35:04;94793.69;;;13.83;68.03
11971;BME280;6045;42.682;23.294;2023-04-08T07:37:31;94791.22;;;14.31;53.47
11971;BME280;6045;42.682;23.294;2023-04-08T07:39:58;94787.66;;;13.93;48.41
11971;BME280;6045;42.682;23.294;2023-04-08T07:42:26;94799.56;;;13.47;49.98
11971;BME280;6045;42.682;23.294;2023-04-08T07:44:53;94798.13;;;13.11;50.17
11971;BME280;6045;42.682;23.294;2023-04-08T07:47:20;94805.63;;;12.86;51.11
11971;BME280;6045;42.682;23.294;2023-04-08T07:49:47;94808.69;;;12.50;52.57
11971;BME280;6045;42.682;23.294;2023-04-08T07:52:14;94806.47;;;12.35;54.63
11971;BME280;6045;42.682;23.294;2023-04-08T07:54:41;94808.22;;;12.29;56.36
11971;BME280;6045;42.682;23.294;2023-04-08T07:57:07;94815.13;;;12.25;54.78
11971;BME280;6045;42.682;23.294;2023-04-08T07:59:35;94815.38;;;12.24;54.36
11971;BME280;6045;42.682;23.294;2023-04-08T08:02:02;94821.66;;;11.83;53.34
11971;BME280;6045;42.682;23.294;2023-04-08T08:04:29;94828.47;;;11.44;56.68
11971;BME280;6045;42.682;23.294;2023-04-08T08:06:56;94833.78;;;11.33;57.20
11971;BME280;6045;42.682;23.294;2023-04-08T08:09:23;94833.44;;;11.41;56.87
11971;BME280;6045;42.682;23.294;2023-04-08T08:11:50;94828.66;;;11.31;58.35
11971;BME280;6045;42.682;23.294;2023-04-08T08:14:17;94815.69;;;11.58;58.20
11971;BME280;6045;42.682;23.294;2023-04-08T08:16:45;94810.75;;;11.43;57.38
11971;BME280;6045;42.682;23.294;2023-04-08T08:19:12;94809.38;;;11.64;57.01
11971;BME280;6045;42.682;23.294;2023-04-08T08:21:39;94810.22;;;11.64;57.01
11971;BME280;6045;42.682;23.294;2023-04-08T08:24:06;94819.38;;;11.57;57.00
11971;BME280;6045;42.682;23.294;2023-04-08T08:26:34;94819.16;;;11.47;56.73
11971;BME280;6045;42.682;23.294;2023-04-08T08:29:01;94829.44;;;11.20;58.34
11971;BME280;6045;42.682;23.294;2023-04-08T08:31:28;94820.72;;;11.25;57.97
11971;BME280;6045;42.682;23.294;2023-04-08T08:33:56;94831.44;;;11.25;59.07
11971;BME280;6045;42.682;23.294;2023-04-08T08:36:23;94832.00;;;11.27;57.79
11971;BME280;6045;42.682;23.294;2023-04-08T08:38:51;94823.53;;;11.30;58.05
11971;BME280;6045;42.682;23.294;2023-04-08T08:41:18;94824.56;;;11.29;57.64
11971;BME280;6045;42.682;23.294;2023-04-08T08:43:45;94820.59;;;11.20;58.05
11971;BME280;6045;42.682;23.294;2023-04-08T08:46:17;94819.78;;;11.19;57.84
11971;BME280;6045;42.682;23.294;2023-04-08T08:48:46;94818.28;;;11.23;58.63
11971;BME280;6045;42.682;23.294;2023-04-08T08:51:14;94824.78;;;11.16;59.32
11971;BME280;6045;42.682;23.294;2023-04-08T08:53:41;94827.63;;;11.02;59.41
11971;BME280;6045;42.682;23.294;2023-04-08T08:56:10;94822.28;;;11.02;59.51
11971;BME280;6045;42.682;23.294;2023-04-08T08:58:37;94812.97;;;11.05;59.53
11971;BME280;6045;42.682;23.294;2023-04-08T09:01:28;94822.56;;;11.13;59.81
11971;BME280;6045;42.682;23.294;2023-04-08T09:04:06;94824.69;;;11.22;59.42
11971;BME280;6045;42.682;23.294;2023-04-08T09:06:35;94826.59;;;11.04;59.06
11971;BME280;6045;42.682;23.294;2023-04-08T09:09:02;94830.94;;;11.16;58.25
11971;BME280;6045;42.682;23.294;2023-04-08T09:11:30;94832.50;;;11.35;58.31
11971;BME280;6045;42.682;23.294;2023-04-08T09:13:57;94820.22;;;11.57;56.77
11971;BME280;6045;42.682;23.294;2023-04-08T09:16:24;94824.22;;;12.01;57.17
11971;BME280;6045;42.682;23.294;2023-04-08T09:18:51;94824.66;;;12.45;56.92
11971;BME280;6045;42.682;23.294;2023-04-08T09:21:21;94823.00;;;12.95;54.67
11971;BME280;6045;42.682;23.294;2023-04-08T09:24:09;94823.31;;;12.98;53.54
11971;BME280;6045;42.682;23.294;2023-04-08T09:26:36;94817.22;;;13.03;53.97
11971;BME280;6045;42.682;23.294;2023-04-08T09:29:04;94813.75;;;13.14;54.93
11971;BME280;6045;42.682;23.294;2023-04-08T09:31:33;94810.59;;;13.50;53.86
11971;BME280;6045;42.682;23.294;2023-04-08T09:34:09;94808.00;;;13.89;51.79
11971;BME280;6045;42.682;23.294;2023-04-08T09:36:37;94804.09;;;14.51;49.53
11971;BME280;6045;42.682;23.294;2023-04-08T09:39:05;94801.66;;;14.71;48.45
11971;BME280;6045;42.682;23.294;2023-04-08T09:41:33;94802.03;;;15.01;47.82
11971;BME280;6045;42.682;23.294;2023-04-08T09:44:02;94802.94;;;15.39;45.57
11971;BME280;6045;42.682;23.294;2023-04-08T09:46:32;94793.50;;;15.10;46.24
11971;BME280;6045;42.682;23.294;2023-04-08T09:49:05;94803.66;;;15.29;46.90
11971;BME280;6045;42.682;23.294;2023-04-08T09:51:40;94790.72;;;15.53;45.69
11971;BME280;6045;42.682;23.294;2023-04-08T09:54:14;94795.38;;;15.99;45.21
11971;BME280;6045;42.682;23.294;2023-04-08T09:56:50;94785.72;;;16.03;44.81
11971;BME280;6045;42.682;23.294;2023-04-08T09:59:21;94788.88;;;15.58;44.39
11971;BME280;6045;42.682;23.294;2023-04-08T10:01:53;94790.56;;;15.38;45.20
11971;BME280;6045;42.682;23.294;2023-04-08T10:04:23;94791.56;;;15.32;47.14
11971;BME280;6045;42.682;23.294;2023-04-08T10:06:53;94782.34;;;14.74;45.57
11971;BME280;6045;42.682;23.294;2023-04-08T10:09:24;94784.00;;;14.37;47.60
11971;BME280;6045;42.682;23.294;2023-04-08T10:11:52;94792.59;;;14.34;47.52
11971;BME280;6045;42.682;23.294;2023-04-08T10:14:19;94775.47;;;14.23;49.03
11971;BME280;6045;42.682;23.294;2023-04-08T10:16:47;94787.84;;;14.24;49.37
11971;BME280;6045;42.682;23.294;2023-04-08T10:19:38;94770.22;;;13.95;49.73
11971;BME280;6045;42.682;23.294;2023-04-08T10:25:29;94775.06;;;15.50;45.96
11971;BME280;6045;42.682;23.294;2023-04-08T10:27:57;94767.94;;;15.65;45.73
11971;BME280;6045;42.682;23.294;2023-04-08T10:30:41;94769.63;;;15.18;45.82
11971;BME280;6045;42.682;23.294;2023-04-08T10:33:12;94769.00;;;14.63;46.59
11971;BME280;6045;42.682;23.294;2023-04-08T10:35:41;94780.00;;;13.18;50.49
11971;BME280;6045;42.682;23.294;2023-04-08T10:38:11;94763.97;;;12.95;50.76
11971;BME280;6045;42.682;23.294;2023-04-08T10:40:40;94770.44;;;12.82;51.24
11971;BME280;6045;42.682;23.294;2023-04-08T10:43:08;94769.66;;;12.70;51.66
11971;BME280;6045;42.682;23.294;2023-04-08T10:45:35;94760.47;;;12.94;52.13
11971;BME280;6045;42.682;23.294;2023-04-08T10:48:15;94756.41;;;13.53;50.74
11971;BME280;6045;42.682;23.294;2023-04-08T10:50:43;94754.81;;;14.94;48.97
11971;BME280;6045;42.682;23.294;2023-04-08T10:53:10;94751.44;;;15.03;47.66
11971;BME280;6045;42.682;23.294;2023-04-08T10:55:37;94748.91;;;14.49;48.13
11971;BME280;6045;42.682;23.294;2023-04-08T10:58:09;94749.06;;;13.99;48.57
11971;BME280;6045;42.682;23.294;2023-04-08T11:00:38;94737.25;;;14.38;49.06
11971;BME280;6045;42.682;23.294;2023-04-08T11:03:06;94741.53;;;14.39;46.98
11971;BME280;6045;42.682;23.294;2023-04-08T11:05:33;94724.44;;;14.07;48.19
11971;BME280;6045;42.682;23.294;2023-04-08T11:08:01;94725.78;;;13.71;49.35
11971;BME280;6045;42.682;23.294;2023-04-08T11:10:28;94735.66;;;13.65;49.68
11971;BME280;6045;42.682;23.294;2023-04-08T11:12:55;94725.59;;;13.39;58.03
11971;BME280;6045;42.682;23.294;2023-04-08T11:15:24;94718.00;;;14.08;67.35
11971;BME280;6045;42.682;23.294;2023-04-08T11:17:51;94723.78;;;14.38;51.73
11971;BME280;6045;42.682;23.294;2023-04-08T11:20:19;94724.78;;;13.94;50.08
11971;BME280;6045;42.682;23.294;2023-04-08T11:22:46;94723.88;;;14.26;48.74
11971;BME280;6045;42.682;23.294;2023-04-08T11:25:13;94717.09;;;15.16;48.72
11971;BME280;6045;42.682;23.294;2023-04-08T11:27:41;94716.38;;;14.98;46.62
11971;BME280;6045;42.682;23.294;2023-04-08T11:30:09;94708.47;;;15.14;47.57
11971;BME280;6045;42.682;23.294;2023-04-08T11:32:38;94714.16;;;14.90;46.36
11971;BME280;6045;42.682;23.294;2023-04-08T11:35:06;94701.91;;;13.91;46.97
11971;BME280;6045;42.682;23.294;2023-04-08T11:37:36;94707.44;;;13.46;48.70
11971;BME280;6045;42.682;23.294;2023-04-08T11:40:07;94704.03;;;13.34;48.73
11971;BME280;6045;42.682;23.294;2023-04-08T11:42:34;94692.47;;;13.34;48.55
11971;BME280;6045;42.682;23.294;2023-04-08T11:45:09;94685.47;;;13.49;49.63
11971;BME280;6045;42.682;23.294;2023-04-08T11:47:38;94678.84;;;13.95;49.82
11971;BME280;6045;42.682;23.294;2023-04-08T11:50:06;94684.44;;;14.54;47.59
11971;BME280;6045;42.682;23.294;2023-04-08T11:52:40;94686.66;;;14.83;45.94
11971;BME280;6045;42.682;23.294;2023-04-08T11:55:08;94681.63;;;14.00;45.63
11971;BME280;6045;42.682;23.294;2023-04-08T11:57:35;94691.34;;;13.30;47.03
11971;BME280;6045;42.682;23.294;2023-04-08T12:00:02;94680.78;;;12.78;48.68
11971;BME280;6045;42.682;23.294;2023-04-08T12:02:31;94679.69;;;12.63;49.77
11971;BME280;6045;42.682;23.294;2023-04-08T12:04:59;94675.16;;;12.35;51.07
11971;BME280;6045;42.682;23.294;2023-04-08T12:07:27;94671.91;;;12.33;50.38
11971;BME280;6045;42.682;23.294;2023-04-08T12:09:53;94691.88;;;12.14;52.35
11971;BME280;6045;42.682;23.294;2023-04-08T12:12:20;94677.81;;;12.07;52.75
11971;BME280;6045;42.682;23.294;2023-04-08T12:14:47;94676.19;;;11.94;52.93
11971;BME280;6045;42.682;23.294;2023-04-08T12:17:14;94678.78;;;11.78;53.14
11971;BME280;6045;42.682;23.294;2023-04-08T12:19:41;94670.06;;;11.71;51.95
11971;BME280;6045;42.682;23.294;2023-04-08T12:22:09;94676.81;;;11.85;52.44
11971;BME280;6045;42.682;23.294;2023-04-08T12:24:36;94667.59;;;11.92;52.54
11971;BME280;6045;42.682;23.294;2023-04-08T12:27:02;94659.94;;;11.84;53.18
11971;BME280;6045;42.682;23.294;2023-04-08T12:29:30;94661.78;;;11.95;53.43
11971;BME280;6045;42.682;23.294;2023-04-08T12:31:56;94659.19;;;12.00;53.61
11971;BME280;6045;42.682;23.294;2023-04-08T12:34:23;94655.38;;;11.96;53.42
11971;BME280;6045;42.682;23.294;2023-04-08T12:36:50;94667.25;;;12.00;53.74
11971;BME280;6045;42.682;23.294;2023-04-08T12:39:18;94646.34;;;11.74;53.67
11971;BME280;6045;42.682;23.294;2023-04-08T12:41:45;94649.69;;;11.81;53.06
11971;BME280;6045;42.682;23.294;2023-04-08T12:44:12;94643.31;;;11.71;54.94
11971;BME280;6045;42.682;23.294;2023-04-08T12:46:38;94647.47;;;11.66;54.19
11971;BME280;6045;42.682;23.294;2023-04-08T12:49:05;94654.16;;;11.41;55.16
11971;BME280;6045;42.682;23.294;2023-04-08T12:51:33;94649.25;;;11.38;54.21
11971;BME280;6045;42.682;23.294;2023-04-08T12:54:00;94660.78;;;11.38;54.94
11971;BME280;6045;42.682;23.294;2023-04-08T12:56:29;94665.09;;;11.51;54.16
11971;BME280;6045;42.682;23.294;2023-04-08T12:58:56;94669.38;;;11.40;54.50
11971;BME280;6045;42.682;23.294;2023-04-08T13:01:23;94674.03;;;11.22;55.42
11971;BME280;6045;42.682;23.294;2023-04-08T13:03:50;94699.97;;;11.10;55.09
11971;BME280;6045;42.682;23.294;2023-04-08T13:06:16;94681.59;;;11.02;55.97
11971;BME280;6045;42.682;23.294;2023-04-08T13:08:43;94680.78;;;11.13;55.90
11971;BME280;6045;42.682;23.294;2023-04-08T13:11:10;94682.31;;;11.32;56.42
11971;BME280;6045;42.682;23.294;2023-04-08T13:13:38;94668.06;;;11.66;57.83